Terminal Aerodrome Forecast
Issued by NWS

Home | Current Version | Previous Version | Text Only | Print | Product List | Glossary On
Versions: 1 2 3 4 5 6 7 8 9 10 11 12
000
FTUS42 TJSJ 171138
TAFJPS
TAF
TJPS 171138Z 1712/1812 08005KT P6SM -RA FEW025 SCT060
     FM171450 13012KT P6SM SCT030 SCT060
     FM172330 07006KT P6SM FEW030=

USA.gov is the U.S. government's official web portal to all federal, state and local government web resources and services.